Time;durP1;ratioP1;P1;durP2;ratioP2;P2;SDS_P1;SDS_P2;PMS_P1;PMS_P2;Temp;Humidity;BMP_temperature;BMP_pressure;BME280_temperature;BME280_humidity;BME280_pressure;Samples;Min_cycle;Max_cycle;Signal;HPM_P1;HPM_P2
2022/02/26 00:04:20;;;;;;;;;;;;;;;;;;10369695;28;19912;-81
2022/02/26 00:09:21;;;;;;;;;;;;;;;;;;10387196;28;19909;-81
2022/02/26 00:14:22;;;;;;;;;;;;;;;;;;10387169;28;19978;-81
2022/02/26 00:19:23;;;;;;;;;;;;;;;;;;10368596;28;19917;-81
2022/02/26 00:24:23;;;;;;;;;;;;;;;;;;10367598;28;19906;-81
2022/02/26 00:29:26;;;;;;;;;;;;;;;;;;10368018;28;19928;-81
2022/02/26 00:34:27;;;;;;;;;;;;;;;;;;10366133;28;19913;-81
2022/02/26 00:39:28;;;;;;;;;;;;;;;;;;10366963;28;19917;-81
2022/02/26 00:44:32;;;;;;;;;;;;;;;;;;10367800;28;19905;-80
2022/02/26 00:49:49;;;;;;;;;;;;;;;;;;10385713;28;19916;-80
2022/02/26 00:54:50;;;;;;;;;;;;;;;;;;10367519;28;19909;-80
2022/02/26 00:59:51;;;;;;;;;;;;;;;;;;10366733;28;19905;-80
2022/02/26 01:04:52;;;;;;;;;;;;;;;;;;10366402;28;19932;-80
2022/02/26 01:09:53;;;;;;;;;;;;;;;;;;10383815;28;19905;-80
2022/02/26 01:14:54;;;;;;;;;;;;;;;;;;10365960;28;19910;-80
2022/02/26 01:19:58;;;;;;;;;;;;;;;;;;10365956;28;19913;-80
2022/02/26 01:24:59;;;;;;;;;;;;;;;;;;10371264;28;19952;-80
2022/02/26 01:30:00;;;;;;;;;;;;;;;;;;10377948;28;20022;-80
2022/02/26 01:35:01;;;;;;;;;;;;;;;;;;10378549;28;19931;-80
2022/02/26 01:40:02;;;;;;;;;;;;;;;;;;10372023;28;20008;-80
2022/02/26 01:45:03;;;;;;;;;;;;;;;;;;10387943;28;19916;-80
2022/02/26 01:50:09;;;;;;;;;;;;;;;;;;10368750;28;19905;-80
2022/02/26 01:55:10;;;;;;;;;;;;;;;;;;10368316;28;19909;-80
2022/02/26 02:00:11;;;;;;;;;;;;;;;;;;10367166;28;20345;-80
2022/02/26 02:05:12;;;;;;;;;;;;;;;;;;10369033;28;19905;-80
2022/02/26 02:10:14;;;;;;;;;;;;;;;;;;10384637;28;20367;-80
2022/02/26 02:15:15;;;;;;;;;;;;;;;;;;10366830;28;19910;-80
2022/02/26 02:20:16;;;;;;;;;;;;;;;;;;10384582;28;19918;-80
2022/02/26 02:25:17;;;;;;;;;;;;;;;;;;10338477;28;19959;-80
2022/02/26 02:30:19;;;;;;;;;;;;;;;;;;10341936;28;19905;-80
2022/02/26 02:35:20;;;;;;;;;;;;;;;;;;10325304;28;19917;-80
2022/02/26 02:40:21;;;;;;;;;;;;;;;;;;10341886;28;20280;-80
2022/02/26 02:45:22;;;;;;;;;;;;;;;;;;10323784;28;19901;-80
2022/02/26 02:50:23;;;;;;;;;;;;;;;;;;10340064;28;19980;-80
2022/02/26 02:55:24;;;;;;;;;;;;;;;;;;10323299;28;19916;-80
2022/02/26 03:00:25;;;;;;;;;;;;;;;;;;10326429;28;19906;-80
2022/02/26 03:05:27;;;;;;;;;;;;;;;;;;10349820;28;19905;-80
2022/02/26 03:10:28;;;;;;;;;;;;;;;;;;10336504;28;19906;-80
2022/02/26 03:15:29;;;;;;;;;;;;;;;;;;10331209;28;19909;-80
2022/02/26 03:20:30;;;;;;;;;;;;;;;;;;10332401;28;19958;-80
2022/02/26 03:25:31;;;;;;;;;;;;;;;;;;10332048;28;19902;-80
2022/02/26 03:30:32;;;;;;;;;;;;;;;;;;10330295;28;19912;-80
2022/02/26 03:35:33;;;;;;;;;;;;;;;;;;10363861;23;20438;-83
2022/02/26 03:40:34;;;;;;;;;;;;;;;;;;10462555;28;20000;-82
2022/02/26 03:45:35;;;;;;;;;;;;;;;;;;10465707;28;19904;-83
2022/02/26 03:50:36;;;;;;;;;;;;;;;;;;10465906;28;19908;-82
2022/02/26 03:55:38;;;;;;;;;;;;;;;;;;10465828;28;19912;-83
2022/02/26 04:00:59;;;;;;;;;;;;;;;;;;10472591;28;19955;-83
2022/02/26 04:06:00;;;;;;;;;;;;;;;;;;10466448;28;19950;-82
2022/02/26 04:11:01;;;;;;;;;;;;;;;;;;10465150;28;19913;-83
2022/02/26 04:16:02;;;;;;;;;;;;;;;;;;10463777;28;19986;-83
2022/02/26 04:21:03;;;;;;;;;;;;;;;;;;10464141;28;19905;-83
2022/02/26 04:26:04;;;;;;;;;;;;;;;;;;10463328;28;19983;-83
2022/02/26 04:31:06;;;;;;;;;;;;;;;;;;10461767;28;19904;-84
2022/02/26 04:36:08;;;;;;;;;;;;;;;;;;10463943;28;19913;-83
2022/02/26 04:41:09;;;;;;;;;;;;;;;;;;10463193;28;19962;-84
2022/02/26 04:46:10;;;;;;;;;;;;;;;;;;10464331;28;19968;-84
2022/02/26 04:51:10;;;;;;;;;;;;;;;;;;10482623;28;20425;-84
2022/02/26 04:56:11;;;;;;;;;;;;;;;;;;10470174;28;19915;-84
2022/02/26 05:01:12;;;;;;;;;;;;;;;;;;10472522;28;19964;-84
2022/02/26 05:06:13;;;;;;;;;;;;;;;;;;10460752;28;20351;-84
2022/02/26 05:11:14;;;;;;;;;;;;;;;;;;10459750;28;19911;-84
2022/02/26 05:16:15;;;;;;;;;;;;;;;;;;10460107;28;19908;-84
2022/02/26 05:21:16;;;;;;;;;;;;;;;;;;10461580;28;19905;-84
2022/02/26 05:26:17;;;;;;;;;;;;;;;;;;10475945;28;19904;-83
2022/02/26 05:31:18;;;;;;;;;;;;;;;;;;10478923;28;19995;-84
2022/02/26 05:36:19;;;;;;;;;;;;;;;;;;10461211;28;19913;-84
2022/02/26 05:41:19;;;;;;;;;;;;;;;;;;10460910;28;19905;-83
2022/02/26 05:46:20;;;;;;;;;;;;;;;;;;10459923;28;19905;-84
2022/02/26 05:51:21;;;;;;;;;;;;;;;;;;10460536;28;19954;-83
2022/02/26 05:56:22;;;;;;;;;;;;;;;;;;10460108;28;20289;-82
2022/02/26 06:01:23;;;;;;;;;;;;;;;;;;10497697;28;19908;-81
2022/02/26 06:06:24;;;;;;;;;;;;;;;;;;10482035;28;20382;-84
2022/02/26 06:11:25;;;;;;;;;;;;;;;;;;10457232;28;19909;-84
2022/02/26 06:16:26;;;;;;;;;;;;;;;;;;10456107;28;19909;-83
2022/02/26 06:21:27;;;;;;;;;;;;;;;;;;10471385;28;19939;-83
2022/02/26 06:26:28;;;;;;;;;;;;;;;;;;10490900;28;19944;-83
2022/02/26 06:31:29;;;;;;;;;;;;;;;;;;10455656;28;19911;-83
2022/02/26 06:36:31;;;;;;;;;;;;;;;;;;10472912;28;19917;-83
2022/02/26 06:41:32;;;;;;;;;;;;;;;;;;10456333;28;19928;-84
2022/02/26 06:46:37;;;;;;;;;;;;;;;;;;10473978;28;19943;-82
2022/02/26 06:51:39;;;;;;;;;;;;;;;;;;10486202;28;19969;-82
2022/02/26 06:56:40;;;;;;;;;;;;;;;;;;10484562;28;19908;-83
2022/02/26 07:01:45;;;;;;;;;;;;;;;;;;10484868;28;19940;-82
2022/02/26 07:06:46;;;;;;;;;;;;;;;;;;10471796;28;20358;-84
2022/02/26 07:11:46;;;;;;;;;;;;;;;;;;10455282;28;19905;-84
2022/02/26 07:16:47;;;;;;;;;;;;;;;;;;10473283;28;19908;-84
2022/02/26 07:21:48;;;;;;;;;;;;;;;;;;10474465;28;19911;-84
2022/02/26 07:26:49;;;;;;;;;;;;;;;;;;10459122;28;19905;-84
2022/02/26 07:31:50;;;;;;;;;;;;;;;;;;10462550;28;19904;-84
2022/02/26 07:36:51;;;;;;;;;;;;;;;;;;10462112;28;20011;-83
2022/02/26 07:41:52;;;;;;;;;;;;;;;;;;10460388;28;19975;-84
2022/02/26 07:46:53;;;;;;;;;;;;;;;;;;10460627;28;19999;-84
2022/02/26 07:51:54;;;;;;;;;;;;;;;;;;10467818;28;20007;-83
2022/02/26 07:56:55;;;;;;;;;;;;;;;;;;10467487;28;20000;-83
2022/02/26 08:01:59;;;;;;;;;;;;;;;;;;10466310;28;19971;-82
2022/02/26 08:07:00;;;;;;;;;;;;;;;;;;10492108;28;19935;-82
2022/02/26 08:12:01;;;;;;;;;;;;;;;;;;10462046;28;19904;-81
2022/02/26 08:17:02;;;;;;;;;;;;;;;;;;10478600;28;19912;-82
2022/02/26 08:22:03;;;;;;;;;;;;;;;;;;10458311;28;19933;-81
2022/02/26 08:27:04;;;;;;;;;;;;;;;;;;10453413;28;19909;-81
2022/02/26 08:32:05;;;;;;;;;;;;;;;;;;10454475;28;19912;-81
2022/02/26 08:37:06;;;;;;;;;;;;;;;;;;10452111;28;19913;-82
2022/02/26 08:42:07;;;;;;;;;;;;;;;;;;10452056;28;19905;-80
2022/02/26 08:47:08;;;;;;;;;;;;;;;;;;10451317;28;19905;-79
2022/02/26 08:52:09;;;;;;;;;;;;;;;;;;10452028;28;19911;-82
2022/02/26 08:57:10;;;;;;;;;;;;;;;;;;10468987;28;19915;-80
2022/02/26 09:02:10;;;;;;;;;;;;;;;;;;10451505;28;19904;-81
2022/02/26 09:07:11;;;;;;;;;;;;;;;;;;10452178;28;19970;-80
2022/02/26 09:12:12;;;;;;;;;;;;;;;;;;10453201;28;20318;-80
2022/02/26 09:17:13;;;;;;;;;;;;;;;;;;10456001;28;19919;-81
2022/02/26 09:22:14;;;;;;;;;;;;;;;;;;10452500;28;19927;-80
2022/02/26 09:27:15;;;;;;;;;;;;;;;;;;10451736;28;19905;-79
2022/02/26 09:32:16;;;;;;;;;;;;;;;;;;10451857;28;19905;-80
2022/02/26 09:37:17;;;;;;;;;;;;;;;;;;10475027;22;20386;-77
2022/02/26 09:42:18;;;;;;;;;;;;;;;;;;10426173;28;19988;-77
2022/02/26 09:47:19;;;;;;;;;;;;;;;;;;10419761;28;19905;-77
2022/02/26 09:52:21;;;;;;;;;;;;;;;;;;10405569;28;19905;-76
2022/02/26 09:57:22;;;;;;;;;;;;;;;;;;10403607;28;19979;-77
2022/02/26 10:02:23;;;;;;;;;;;;;;;;;;10406692;28;19909;-77
2022/02/26 10:07:25;;;;;;;;;;;;;;;;;;10404539;28;20367;-77
2022/02/26 10:12:47;;;;;;;;;;;;;;;;;;10415324;28;19909;-77
2022/02/26 10:18:09;;;;;;;;;;;;;;;;;;10439782;28;19944;-77
2022/02/26 10:23:10;;;;;;;;;;;;;;;;;;10443850;28;19896;-77
2022/02/26 10:28:11;;;;;;;;;;;;;;;;;;10418392;28;19909;-77
2022/02/26 10:33:12;;;;;;;;;;;;;;;;;;10434874;28;19990;-78
2022/02/26 10:38:19;;;;;;;;;;;;;;;;;;10418977;28;19920;-77
2022/02/26 10:43:20;;;;;;;;;;;;;;;;;;10435208;28;19928;-77
2022/02/26 10:48:24;;;;;;;;;;;;;;;;;;10432237;28;20325;-77
2022/02/26 10:53:28;;;;;;;;;;;;;;;;;;10446300;28;19991;-78
2022/02/26 10:58:35;;;;;;;;;;;;;;;;;;10435999;28;19920;-78
2022/02/26 11:03:38;;;;;;;;;;;;;;;;;;10435380;28;19936;-77
2022/02/26 11:08:39;;;;;;;;;;;;;;;;;;10413135;28;19912;-78
2022/02/26 11:13:41;;;;;;;;;;;;;;;;;;10425912;28;19908;-78
2022/02/26 11:18:42;;;;;;;;;;;;;;;;;;10422329;28;20334;-77
2022/02/26 11:23:43;;;;;;;;;;;;;;;;;;10413487;28;20271;-78
2022/02/26 11:28:44;;;;;;;;;;;;;;;;;;10415402;28;19905;-78
2022/02/26 11:33:47;;;;;;;;;;;;;;;;;;10413932;28;19913;-77
2022/02/26 11:44:08;;;;;;;;;;;;;;;;;;10430545;28;19908;-77
2022/02/26 11:49:09;;;;;;;;;;;;;;;;;;10415977;28;19905;-78
2022/02/26 11:54:10;;;;;;;;;;;;;;;;;;10414940;28;20454;-77
2022/02/26 11:59:11;;;;;;;;;;;;;;;;;;10413709;28;19914;-78
2022/02/26 12:04:12;;;;;;;;;;;;;;;;;;10412304;28;19916;-78
2022/02/26 12:09:17;;;;;;;;;;;;;;;;;;10412726;28;19911;-79
2022/02/26 12:14:19;;;;;;;;;;;;;;;;;;10412280;28;19909;-78
2022/02/26 12:19:20;;;;;;;;;;;;;;;;;;10412503;28;19905;-77
2022/02/26 12:24:24;;;;;;;;;;;;;;;;;;10426340;28;19905;-78
2022/02/26 12:29:25;;;;;;;;;;;;;;;;;;10409992;28;19905;-78
2022/02/26 12:34:26;;;;;;;;;;;;;;;;;;10408826;28;19962;-77
2022/02/26 12:39:28;;;;;;;;;;;;;;;;;;10414460;28;19933;-77
2022/02/26 12:44:30;;;;;;;;;;;;;;;;;;10410421;28;19905;-77
2022/02/26 18:37:03;;;;;;;;;;;;;;;;;;11115208;22;19929;-83
2022/02/26 18:42:27;;;;;;;;;;;;;;;;;;10271722;29;19910;-83
2022/02/26 18:52:55;;;;;;;;;;;;;;;;;;10389128;28;19905;-83
2022/02/26 19:03:16;;;;;;;;;;;;;;;;;;10385551;28;19905;-83
2022/02/26 19:08:37;;;;;;;;;;;;;;;;;;10385983;28;19906;-84
2022/02/26 19:13:50;;;;;;;;;;;;;;;;;;10383336;28;19905;-84
2022/02/26 19:18:55;;;;;;;;;;;;;;;;;;10370503;28;19913;-83
2022/02/26 19:29:20;;;;;;;;;;;;;;;;;;10393370;28;19909;-83
2022/02/26 19:34:23;;;;;;;;;;;;;;;;;;10391492;28;19917;-83
2022/02/26 19:39:42;;;;;;;;;;;;;;;;;;10386335;28;19905;-84
2022/02/26 19:44:44;;;;;;;;;;;;;;;;;;10389433;28;19999;-84
2022/02/26 19:49:47;;;;;;;;;;;;;;;;;;10391234;23;19921;-84
2022/02/26 19:54:52;;;;;;;;;;;;;;;;;;10353735;28;19910;-83
2022/02/26 20:32:11;;;;;;;;;;;;;;;;;;10400449;28;19937;-83
2022/02/26 20:37:14;;;;;;;;;;;;;;;;;;10420853;28;19924;-84
2022/02/26 20:42:38;;;;;;;;;;;;;;;;;;10419998;28;19909;-84
2022/02/26 20:47:46;;;;;;;;;;;;;;;;;;10443622;28;19993;-84
2022/02/26 20:53:07;;;;;;;;;;;;;;;;;;10438298;28;19905;-84
